Nearby METAR Reports

 

KGRB - Ashwaubenon, Wisconsin, USA
Distance from station: NW 5mi, 8km
Updated: Fri, 12-Jul-2024 9:53pm CDT
Clear
Clear
 Wind from S
Wind: S 8 mph, 13 km/h
Temperature: 77°F, 25°C
Dew Point: 63°F, 17°C
Humidity: 61%
Barometer: 30.10 inHg, 1019.3 hPa
Clouds: Clear
Visibility: 10 miles, 16 km
2024/07/13 02:53 KGRB 130253Z AUTO 18007KT 10SM CLR 25/17 A3010 RMK AO2 SLP188 T02500172 51009
KATW - Appleton/Outagam, Wisconsin, USA
Distance from station: WSW 26mi, 42km
Updated: Fri, 12-Jul-2024 10:45pm CDT
Clear
Clear
 Wind from SSW
Wind: SSW 5 mph, 7 km/h
Temperature: 73°F, 23°C
Dew Point: 64°F, 18°C
Humidity: 74%
Barometer: 30.12 inHg, 1020 hPa
Clouds: Clear
Visibility: 10 miles, 16 km
2024/07/13 03:45 KATW 130345Z 20004KT 10SM CLR 23/18 A3012
 
KMTW - Manitowac Muni, Wisconsin, USA
Distance from station: SE 29mi, 47km
Updated: Fri, 12-Jul-2024 9:56pm CDT
Clear
Clear
 Wind from SW
Wind: SW 6 mph, 9 km/h
Temperature: 73°F, 23°C
Dew Point: 55°F, 13°C
Humidity: 53%
Barometer: 30.12 inHg, 1020 hPa
Clouds: Clear
Visibility: 10 miles, 16 km
2024/07/13 02:56 KMTW 130256Z AUTO 22005KT 10SM CLR 23/13 A3012 RMK AO2 SLP194 T02280133 53003
KOCQ - Oconto, Wisconsin, USA
Distance from station: NNE 30mi, 49km
Updated: Fri, 12-Jul-2024 10:35pm CDT
Clear
Clear
 Wind from calm
Wind: Calm
Temperature: 68°F, 20°C
Dew Point: 66°F, 19°C
Humidity: 94%
Barometer: 30.10 inHg, 1019.3 hPa
Clouds: Clear
Visibility: 10 miles, 16 km
2024/07/13 03:35 KOCQ 130335Z AUTO 00000KT 10SM CLR 20/19 A3010 RMK AO1 T01950189
 
KEZS - Shawano Muni, Wisconsin, USA
Distance from station: NW 35mi, 56km
Updated: Fri, 12-Jul-2024 10:35pm CDT
Clear
Clear
 Wind from calm
Wind: Calm
Temperature: 72°F, 22°C
Dew Point: 72°F, 22°C
Humidity: 100%
Barometer: 30.11 inHg, 1019.6 hPa
Clouds: Clear
Visibility: 10 miles, 16 km
2024/07/13 03:35 KEZS 130335Z AUTO 00000KT 10SM CLR 22/22 A3011 RMK AO2 T02230215
KCLI - Clintonville, Wisconsin, USA
Distance from station: WNW 36mi, 58km
Updated: Fri, 12-Jul-2024 10:35pm CDT
Clear
Clear
 Wind from SSW
Wind: SSW 3 mph, 6 km/h
Temperature: 73°F, 23°C
Dew Point: 64°F, 18°C
Humidity: 74%
Barometer: 30.12 inHg, 1020 hPa
Clouds: Clear
Visibility: 10 miles, 16 km
2024/07/13 03:35 KCLI 130335Z AUTO 21003KT 10SM CLR 23/18 A3012 RMK AO2 T02260183
 
KOSH - Oshkosh, Wisconsin, USA
Distance from station: SW 41mi, 66km
Updated: Fri, 12-Jul-2024 9:53pm CDT
Clear
Clear
 Wind from SE
Wind: SE 6 mph, 9 km/h
Temperature: 73°F, 23°C
Dew Point: 63°F, 17°C
Humidity: 69%
Barometer: 30.10 inHg, 1019.3 hPa
Clouds: Clear
Visibility: 10 miles, 16 km
2024/07/13 02:53 KOSH 130253Z 14005KT 10SM CLR 23/17 A3010 RMK AO2 SLP179 T02280172 51004
KSUE - Sturgeon Bay, Wisconsin, USA
Distance from station: NE 42mi, 68km
Updated: Fri, 12-Jul-2024 5:56pm CDT
NOT Current
Few Clouds
Few Clouds
 Wind from S
Wind: S 14 mph, 22 km/h
Temperature: 81°F, 27°C
Heat Index: 81°F, 27°C
Dew Point: 57°F, 14°C
Humidity: 45%
Barometer: 30.08 inHg, 1018.6 hPa
Clouds: Few Clouds
Visibility: 10 miles, 16 km
Cloud details: Few Clouds 9500 ft
2024/07/12 22:56 KSUE 122256Z AUTO 19012KT 10SM FEW095 27/14 A3008 RMK AO2 SLP182 T02670139
 
KSBM - Sheboygan, Wisconsin, USA
Distance from station: SSE 46mi, 75km
Updated: Fri, 12-Jul-2024 9:53pm CDT
Clear
Clear
 Wind from WSW
Wind: WSW 5 mph, 7 km/h
Temperature: 70°F, 21°C
Dew Point: 59°F, 15°C
Humidity: 69%
Barometer: 30.12 inHg, 1020 hPa
Clouds: Clear
Visibility: 10 miles, 16 km
2024/07/13 02:53 KSBM 130253Z AUTO 24004KT 10SM CLR 21/15 A3012 RMK AO2 RAB18E34 SLP195 P0000 60000 T02060150 51005
KPCZ - Waupaca, Wisconsin, USA
Distance from station: W 48mi, 77km
Updated: Fri, 12-Jul-2024 10:35pm CDT
Clear
Clear
 Wind from calm
Wind: Calm
Temperature: 73°F, 23°C
Dew Point: 64°F, 18°C
Humidity: 74%
Barometer: 30.12 inHg, 1020 hPa
Clouds: Clear
Visibility: 10 miles, 16 km
2024/07/13 03:35 KPCZ 130335Z AUTO 00000KT 10SM CLR 23/18 A3012 RMK AO2 T02340182